createdAt,value
2023-04-09T00:01:34.689Z,30.65
2023-04-09T00:04:01.363Z,37.70
2023-04-09T00:06:27.942Z,30.17
2023-04-09T00:08:54.516Z,30.92
2023-04-09T00:11:21.607Z,36.90
2023-04-09T00:13:48.185Z,37.90
2023-04-09T00:16:14.726Z,35.42
2023-04-09T00:18:41.752Z,34.53
2023-04-09T00:21:08.780Z,31.02
2023-04-09T00:23:36.055Z,35.50
2023-04-09T00:26:02.632Z,41.63
2023-04-09T00:28:29.154Z,34.33
2023-04-09T00:30:55.921Z,34.10
2023-04-09T00:33:22.385Z,34.83
2023-04-09T00:35:48.917Z,36.85
2023-04-09T00:38:15.484Z,32.20
2023-04-09T00:40:42.265Z,31.30
2023-04-09T00:43:08.979Z,37.27
2023-04-09T00:45:36.492Z,36.75
2023-04-09T00:48:03.192Z,38.13
2023-04-09T00:50:29.650Z,33.03
2023-04-09T00:52:56.373Z,37.63
2023-04-09T00:55:22.881Z,38.10
2023-04-09T00:57:49.442Z,35.40
2023-04-09T01:00:16.224Z,34.97
2023-04-09T01:02:43.695Z,31.35
2023-04-09T01:05:12.371Z,33.47
2023-04-09T01:07:38.831Z,35.10
2023-04-09T01:10:23.541Z,30.60
2023-04-09T01:13:04.101Z,36.10
2023-04-09T01:15:36.369Z,31.65
2023-04-09T01:18:10.089Z,32.85
2023-04-09T01:20:49.583Z,33.17
2023-04-09T01:23:40.957Z,35.75
2023-04-09T01:26:16.974Z,29.27
2023-04-09T01:28:46.560Z,30.70
2023-04-09T01:31:17.136Z,31.33
2023-04-09T01:33:44.464Z,30.23
2023-04-09T01:36:11.701Z,30.38
2023-04-09T01:38:42.211Z,30.38
2023-04-09T01:41:12.180Z,29.85
2023-04-09T01:43:39.022Z,32.55
2023-04-09T01:46:05.521Z,30.10
2023-04-09T01:48:33.611Z,28.10
2023-04-09T01:51:00.330Z,31.27
2023-04-09T01:53:31.074Z,34.17
2023-04-09T01:56:01.382Z,27.90
2023-04-09T01:58:28.107Z,31.97
2023-04-09T02:01:06.548Z,31.20
2023-04-09T02:03:41.225Z,30.85
2023-04-09T02:06:15.727Z,29.95
2023-04-09T02:08:47.516Z,31.23
2023-04-09T02:11:16.397Z,29.03
2023-04-09T02:13:44.165Z,32.22
2023-04-09T02:16:13.878Z,30.73
2023-04-09T02:18:40.416Z,31.83
2023-04-09T02:21:07.171Z,33.50
2023-04-09T02:23:33.686Z,34.20
2023-04-09T02:26:00.165Z,30.63
2023-04-09T02:28:26.710Z,31.98
2023-04-09T02:30:53.239Z,32.05
2023-04-09T02:33:19.784Z,32.95
2023-04-09T02:35:46.231Z,34.33
2023-04-09T02:38:13.961Z,36.35
2023-04-09T02:40:41.306Z,34.47
2023-04-09T02:43:08.477Z,34.53
2023-04-09T02:45:34.937Z,30.42
2023-04-09T02:48:01.798Z,33.40
2023-04-09T02:50:29.532Z,33.20
2023-04-09T02:52:56.041Z,32.25
2023-04-09T02:55:22.722Z,33.45
2023-04-09T02:57:49.182Z,30.92
2023-04-09T03:00:15.801Z,32.10
2023-04-09T03:02:42.634Z,30.70
2023-04-09T03:05:09.514Z,31.65
2023-04-09T03:07:35.952Z,34.13
2023-04-09T03:10:02.543Z,33.60
2023-04-09T03:12:28.959Z,32.97
2023-04-09T03:14:55.517Z,37.33
2023-04-09T03:17:22.108Z,35.92
2023-04-09T03:19:48.614Z,31.88
2023-04-09T03:22:15.240Z,32.92
2023-04-09T03:24:41.797Z,37.60
2023-04-09T03:27:08.284Z,32.20
2023-04-09T03:29:34.736Z,33.35
2023-04-09T03:32:01.190Z,33.08
2023-04-09T03:34:27.751Z,37.17
2023-04-09T03:36:54.173Z,32.27
2023-04-09T03:39:20.686Z,33.45
2023-04-09T03:41:47.174Z,33.97
2023-04-09T03:44:13.661Z,32.08
2023-04-09T03:46:40.260Z,35.03
2023-04-09T03:49:06.729Z,32.97
2023-04-09T03:51:33.183Z,33.50
2023-04-09T03:53:59.637Z,30.83
2023-04-09T03:56:26.305Z,35.10
2023-04-09T03:58:52.969Z,29.55
2023-04-09T04:01:19.565Z,35.93
2023-04-09T04:03:46.177Z,31.17
2023-04-09T04:06:12.732Z,34.35
2023-04-09T04:08:39.197Z,29.45
2023-04-09T04:11:05.883Z,35.88
2023-04-09T04:13:32.390Z,35.37
2023-04-09T04:15:58.971Z,34.38
2023-04-09T04:18:25.653Z,37.17
2023-04-09T04:20:52.088Z,33.05
2023-04-09T04:23:18.861Z,36.28
2023-04-09T04:25:45.321Z,36.37
2023-04-09T04:28:11.792Z,36.10
2023-04-09T04:30:40.875Z,38.90
2023-04-09T04:33:07.293Z,39.80
2023-04-09T04:35:33.847Z,38.60
2023-04-09T04:38:01.443Z,39.60
2023-04-09T04:40:28.033Z,38.10
2023-04-09T04:42:54.508Z,39.63
2023-04-09T04:45:20.980Z,39.92
2023-04-09T04:47:47.581Z,42.58
2023-04-09T04:50:14.119Z,44.20
2023-04-09T04:52:40.654Z,45.28
2023-04-09T04:55:07.416Z,45.90
2023-04-09T04:57:33.957Z,46.38
2023-04-09T05:00:00.536Z,51.05
2023-04-09T05:02:27.139Z,54.40
2023-04-09T05:04:53.643Z,57.08
2023-04-09T05:07:20.197Z,56.65
2023-04-09T05:09:46.632Z,56.65
2023-04-09T05:12:13.697Z,54.90
2023-04-09T05:14:40.491Z,51.47
2023-04-09T05:17:07.078Z,53.55
2023-04-09T05:19:33.516Z,53.80
2023-04-09T05:22:00.030Z,54.03
2023-04-09T05:24:26.486Z,51.22
2023-04-09T05:26:52.933Z,58.27
2023-04-09T05:29:19.390Z,56.65
2023-04-09T05:31:46.088Z,51.20
2023-04-09T05:34:12.608Z,51.63
2023-04-09T05:36:39.210Z,53.45
2023-04-09T05:39:05.711Z,54.83
2023-04-09T05:41:33.640Z,46.60
2023-04-09T05:44:01.001Z,51.25
2023-04-09T05:46:28.882Z,52.78
2023-04-09T05:48:55.661Z,52.65
2023-04-09T05:51:22.148Z,53.10
2023-04-09T05:53:48.624Z,45.67
2023-04-09T05:56:15.759Z,41.60
2023-04-09T05:58:43.033Z,39.90
2023-04-09T06:01:10.202Z,39.75
2023-04-09T06:03:36.902Z,35.17
2023-04-09T06:06:03.576Z,34.67
2023-04-09T06:08:30.024Z,33.72
2023-04-09T06:10:56.590Z,35.53
2023-04-09T06:13:23.063Z,33.60
2023-04-09T06:15:49.520Z,32.67
2023-04-09T06:18:16.305Z,31.65
2023-04-09T06:20:42.766Z,33.45
2023-04-09T06:23:09.397Z,30.23
2023-04-09T06:25:36.472Z,29.17
2023-04-09T06:28:03.205Z,29.03
2023-04-09T06:30:30.974Z,30.98
2023-04-09T06:32:57.664Z,31.88
2023-04-09T06:35:24.185Z,28.33
2023-04-09T06:37:50.885Z,29.50
2023-04-09T06:40:17.440Z,27.50
2023-04-09T06:42:43.949Z,26.80
2023-04-09T06:45:10.677Z,29.13
2023-04-09T06:47:37.214Z,26.77
2023-04-09T06:50:04.092Z,28.65
2023-04-09T06:52:30.816Z,27.23
2023-04-09T06:54:57.242Z,28.95
2023-04-09T06:57:23.714Z,29.92
2023-04-09T06:59:50.375Z,26.92
2023-04-09T07:02:16.976Z,25.83
2023-04-09T07:04:43.938Z,28.50
2023-04-09T07:07:10.586Z,27.48
2023-04-09T07:09:37.053Z,27.38
2023-04-09T07:12:03.599Z,26.98
2023-04-09T07:14:30.398Z,26.45
2023-04-09T07:16:57.204Z,24.20
2023-04-09T07:19:23.756Z,26.92
2023-04-09T07:21:50.925Z,27.17
2023-04-09T07:24:17.428Z,27.42
2023-04-09T07:26:43.990Z,29.55
2023-04-09T07:29:10.600Z,30.77
2023-04-09T07:31:37.049Z,26.33
2023-04-09T07:34:03.582Z,27.80
2023-04-09T07:36:30.740Z,27.17
2023-04-09T07:38:57.255Z,28.13
2023-04-09T07:41:23.989Z,25.73
2023-04-09T07:43:50.486Z,27.10
2023-04-09T07:46:21.738Z,31.15
2023-04-09T07:48:50.426Z,31.67
2023-04-09T07:51:17.309Z,30.77
2023-04-09T07:53:43.821Z,31.13
2023-04-09T07:56:10.428Z,28.17
2023-04-09T07:58:38.124Z,29.38
2023-04-09T08:01:04.892Z,31.35
2023-04-09T08:03:31.624Z,30.80
2023-04-09T08:05:58.395Z,29.27
2023-04-09T08:08:24.917Z,29.05
2023-04-09T08:10:51.625Z,30.02
2023-04-09T08:13:18.111Z,29.58
2023-04-09T08:15:44.561Z,33.97
2023-04-09T08:18:11.065Z,35.87
2023-04-09T08:20:37.943Z,32.63
2023-04-09T08:23:04.455Z,33.50
2023-04-09T08:25:31.028Z,30.13
2023-04-09T08:27:58.133Z,33.15
2023-04-09T08:30:25.848Z,36.57
2023-04-09T08:32:53.222Z,30.42
2023-04-09T08:35:19.930Z,32.80
2023-04-09T08:37:46.833Z,32.63
2023-04-09T08:40:13.449Z,37.60
2023-04-09T08:42:47.491Z,31.20
2023-04-09T08:45:14.215Z,35.13
2023-04-09T08:47:42.284Z,34.17
2023-04-09T08:50:09.277Z,35.22
2023-04-09T08:52:37.244Z,35.65
2023-04-09T08:55:04.206Z,31.87
2023-04-09T08:57:31.074Z,32.13
2023-04-09T08:59:58.802Z,33.90
2023-04-09T09:02:25.354Z,33.85
2023-04-09T09:04:53.522Z,37.28
2023-04-09T09:07:20.121Z,34.77
2023-04-09T09:09:54.313Z,43.60
2023-04-09T09:12:38.613Z,31.85
2023-04-09T09:15:07.088Z,33.80
2023-04-09T09:17:34.438Z,38.55
2023-04-09T09:20:19.928Z,32.43
2023-04-09T09:22:54.956Z,34.25
2023-04-09T09:25:24.807Z,35.70
2023-04-09T09:27:52.495Z,34.85
2023-04-09T09:30:22.427Z,37.65
2023-04-09T09:32:53.823Z,35.60
2023-04-09T09:35:20.552Z,34.35
2023-04-09T09:37:46.998Z,34.72
2023-04-09T09:40:27.784Z,35.67
2023-04-09T09:42:56.147Z,30.50
2023-04-09T09:45:22.711Z,29.70
2023-04-09T09:47:49.736Z,32.28
2023-04-09T09:50:16.230Z,31.05
2023-04-09T09:52:46.161Z,32.33
2023-04-09T09:55:17.138Z,29.35
2023-04-09T09:57:47.170Z,30.83
2023-04-09T10:00:14.901Z,27.60
2023-04-09T10:02:53.300Z,28.65
2023-04-09T10:05:24.967Z,26.70
2023-04-09T10:07:51.979Z,25.73
2023-04-09T10:10:18.717Z,25.93
2023-04-09T10:12:45.509Z,26.25
2023-04-09T10:15:12.202Z,29.38
2023-04-09T10:17:39.008Z,27.60
2023-04-09T10:20:12.879Z,27.90
2023-04-09T10:22:40.164Z,27.17
2023-04-09T10:25:07.245Z,23.65
2023-04-09T10:27:33.739Z,26.02
2023-04-09T10:30:01.772Z,22.38
2023-04-09T10:32:36.070Z,24.08
2023-04-09T10:35:04.168Z,25.97
2023-04-09T10:37:31.816Z,25.48
2023-04-09T10:39:58.680Z,24.52
2023-04-09T10:42:35.727Z,26.10
2023-04-09T10:45:11.606Z,24.33
2023-04-09T10:47:40.228Z,24.30
2023-04-09T10:50:27.988Z,25.15
2023-04-09T10:52:57.324Z,26.17
2023-04-09T10:55:37.090Z,25.77
2023-04-09T10:58:10.443Z,25.70
2023-04-09T11:00:40.315Z,25.33
2023-04-09T11:03:19.622Z,28.77
2023-04-09T11:05:51.221Z,26.73
2023-04-09T11:08:17.859Z,25.98
2023-04-09T11:10:46.219Z,19.35
2023-04-09T11:13:14.204Z,21.30
2023-04-09T11:15:41.181Z,21.25
2023-04-09T11:18:09.675Z,19.77
2023-04-09T11:20:36.809Z,19.48
2023-04-09T11:23:03.696Z,15.60
2023-04-09T11:25:32.789Z,20.03
2023-04-09T11:27:59.853Z,18.00
2023-04-09T11:30:26.470Z,17.50
2023-04-09T11:32:53.471Z,16.60
2023-04-09T11:35:22.216Z,15.82
2023-04-09T11:37:50.121Z,14.00
2023-04-09T11:40:21.727Z,15.70
2023-04-09T11:42:53.343Z,14.88
2023-04-09T11:45:22.292Z,15.15
2023-04-09T11:47:48.979Z,14.32
2023-04-09T11:50:16.642Z,13.30
2023-04-09T11:52:44.937Z,13.80
2023-04-09T11:55:12.038Z,12.93
2023-04-09T11:57:46.941Z,13.20
2023-04-09T12:00:17.830Z,11.52
2023-04-09T12:02:49.601Z,11.20
2023-04-09T12:05:28.050Z,12.77
2023-04-09T12:07:59.700Z,13.25
2023-04-09T12:10:28.416Z,10.95
2023-04-09T12:12:55.197Z,9.55
2023-04-09T12:15:24.017Z,10.20
2023-04-09T12:17:53.592Z,10.75
2023-04-09T12:20:40.775Z,10.38
2023-04-09T12:23:08.314Z,10.35
2023-04-09T12:25:40.080Z,15.25
2023-04-09T12:28:09.077Z,14.10
2023-04-09T12:30:36.010Z,10.32
2023-04-09T12:33:03.906Z,12.20
2023-04-09T12:35:30.626Z,11.50
2023-04-09T12:37:57.228Z,10.02
2023-04-09T12:40:23.769Z,13.27
2023-04-09T12:42:50.260Z,11.43
2023-04-09T12:45:18.157Z,11.90
2023-04-09T12:47:44.877Z,10.68
2023-04-09T12:50:12.754Z,11.35
2023-04-09T12:52:39.404Z,10.43
2023-04-09T12:55:06.665Z,9.45
2023-04-09T12:57:33.890Z,10.02
2023-04-09T13:00:00.518Z,10.43
2023-04-09T13:02:27.120Z,10.27
2023-04-09T13:04:53.659Z,12.17
2023-04-09T13:07:20.601Z,12.43
2023-04-09T13:09:48.427Z,10.98
2023-04-09T13:12:16.117Z,10.73
2023-04-09T13:14:44.969Z,11.13
2023-04-09T13:17:11.523Z,11.33
2023-04-09T13:19:38.134Z,11.35
2023-04-09T13:22:07.848Z,10.35
2023-04-09T13:24:38.967Z,12.88
2023-04-09T13:27:06.581Z,11.07
2023-04-09T13:29:33.092Z,10.03
2023-04-09T13:32:01.785Z,10.68
2023-04-09T13:34:28.302Z,11.27
2023-04-09T13:36:54.773Z,11.63
2023-04-09T13:39:21.226Z,10.60
2023-04-09T13:41:47.720Z,10.63
2023-04-09T13:44:14.168Z,10.13
2023-04-09T13:46:40.991Z,10.50
2023-04-09T13:49:07.567Z,9.05
2023-04-09T13:51:34.081Z,9.98
2023-04-09T13:54:00.617Z,9.43
2023-04-09T13:56:27.536Z,9.82
2023-04-09T13:58:54.553Z,9.23
2023-04-09T14:01:21.476Z,12.82
2023-04-09T14:03:48.095Z,9.95
2023-04-09T14:06:14.654Z,8.90
2023-04-09T14:08:41.135Z,10.35
2023-04-09T14:11:07.757Z,10.50
2023-04-09T14:13:34.239Z,8.75
2023-04-09T14:16:00.761Z,9.40
2023-04-09T14:18:27.286Z,8.80
2023-04-09T14:20:53.748Z,8.98
2023-04-09T14:23:20.274Z,8.73
2023-04-09T14:25:46.786Z,9.43
2023-04-09T14:28:13.280Z,10.77
2023-04-09T14:30:39.777Z,11.63
2023-04-09T14:33:06.605Z,10.57
2023-04-09T14:35:33.303Z,9.20
2023-04-09T14:37:59.929Z,10.10
2023-04-09T14:40:26.422Z,13.02
2023-04-09T14:42:52.893Z,10.70
2023-04-09T14:45:19.409Z,10.07
2023-04-09T14:47:46.078Z,9.85
2023-04-09T14:50:12.929Z,10.43
2023-04-09T14:52:39.486Z,10.48
2023-04-09T14:55:12.079Z,9.93
2023-04-09T14:57:39.733Z,10.90
2023-04-09T15:00:08.427Z,9.95
2023-04-09T15:02:35.430Z,11.73
2023-04-09T15:05:02.891Z,10.77
2023-04-09T15:07:29.602Z,9.80
2023-04-09T15:09:57.262Z,11.95
2023-04-09T15:12:23.743Z,9.43
2023-04-09T15:14:50.216Z,9.43
2023-04-09T15:17:16.785Z,9.02
2023-04-09T15:19:43.307Z,8.27
2023-04-09T15:22:09.785Z,10.00
2023-04-09T15:24:36.246Z,8.93
2023-04-09T15:27:02.675Z,8.98
2023-04-09T15:29:29.148Z,9.88
2023-04-09T15:31:55.667Z,9.67
2023-04-09T15:34:23.335Z,10.25
2023-04-09T15:36:49.804Z,10.60
2023-04-09T15:39:16.465Z,8.63
2023-04-09T15:41:43.226Z,8.38
2023-04-09T15:44:09.807Z,8.07
2023-04-09T15:46:37.952Z,10.35
2023-04-09T15:49:05.041Z,8.98
2023-04-09T15:51:31.648Z,9.27
2023-04-09T15:53:59.120Z,9.15
2023-04-09T15:56:25.560Z,9.30
2023-04-09T15:58:52.376Z,9.48
2023-04-09T16:01:19.464Z,8.38
2023-04-09T16:03:51.816Z,9.25
2023-04-09T16:06:18.838Z,9.40
2023-04-09T16:08:45.558Z,9.23
2023-04-09T16:11:12.069Z,9.20
2023-04-09T16:13:38.598Z,9.85
2023-04-09T16:16:06.736Z,10.73
2023-04-09T16:18:33.657Z,11.07
2023-04-09T16:21:00.393Z,10.50
2023-04-09T16:23:29.926Z,8.82
2023-04-09T16:25:57.117Z,9.00
2023-04-09T16:28:23.587Z,8.50
2023-04-09T16:30:50.851Z,9.45
2023-04-09T16:33:17.556Z,9.20
2023-04-09T16:35:44.224Z,9.02
2023-04-09T16:38:10.822Z,8.77
2023-04-09T16:40:37.444Z,8.50
2023-04-09T16:43:04.212Z,9.63
2023-04-09T16:45:32.022Z,9.10
2023-04-09T16:47:58.531Z,9.85
2023-04-09T16:50:25.336Z,9.20
2023-04-09T16:52:51.858Z,9.40
2023-04-09T16:55:18.458Z,9.00
2023-04-09T16:57:44.919Z,9.87
2023-04-09T17:00:12.858Z,9.63
2023-04-09T17:02:39.613Z,19.52
2023-04-09T17:05:06.620Z,10.15
2023-04-09T17:07:33.231Z,9.13
2023-04-09T17:09:59.774Z,9.50
2023-04-09T17:12:26.773Z,8.90
2023-04-09T17:14:53.622Z,9.40
2023-04-09T17:17:20.153Z,8.23
2023-04-09T17:19:46.645Z,9.32
2023-04-09T17:22:13.940Z,9.03
2023-04-09T17:24:40.456Z,9.90
2023-04-09T17:27:07.429Z,8.98
2023-04-09T17:29:34.303Z,8.60
2023-04-09T17:32:00.823Z,8.77
2023-04-09T17:34:27.533Z,8.57
2023-04-09T17:36:59.815Z,8.98
2023-04-09T17:39:27.001Z,8.52
2023-04-09T17:41:56.276Z,8.75
2023-04-09T17:44:24.838Z,8.13
2023-04-09T17:46:51.920Z,9.30
2023-04-09T17:49:18.488Z,9.15
2023-04-09T17:51:45.022Z,13.57
2023-04-09T17:54:11.734Z,19.20
2023-04-09T17:56:39.087Z,12.02
2023-04-09T17:59:06.655Z,11.53
2023-04-09T18:01:33.418Z,12.30
2023-04-09T18:04:01.461Z,12.25
2023-04-09T18:06:28.329Z,14.77
2023-04-09T18:08:54.823Z,13.35
2023-04-09T18:11:21.673Z,14.97
2023-04-09T18:13:48.434Z,16.77
2023-04-09T18:16:15.155Z,18.40
2023-04-09T18:18:41.657Z,13.27
2023-04-09T18:21:08.218Z,15.57
2023-04-09T18:23:34.820Z,15.40
2023-04-09T18:26:01.740Z,12.57
2023-04-09T18:28:28.255Z,11.82
2023-04-09T18:30:54.853Z,12.50
2023-04-09T18:33:21.518Z,11.95
2023-04-09T18:35:48.227Z,12.47
2023-04-09T18:38:14.760Z,12.35
2023-04-09T18:40:44.580Z,12.00
2023-04-09T18:43:11.648Z,12.00
2023-04-09T18:45:39.707Z,12.65
2023-04-09T18:48:08.044Z,12.47
2023-04-09T18:50:34.979Z,13.05
2023-04-09T18:53:03.419Z,18.38
2023-04-09T18:55:30.698Z,26.58
2023-04-09T18:57:57.524Z,23.63
2023-04-09T19:00:24.197Z,19.27
2023-04-09T19:02:50.939Z,18.27
2023-04-09T19:05:17.757Z,19.00
2023-04-09T19:07:44.261Z,24.35
2023-04-09T19:10:10.849Z,46.95
2023-04-09T19:12:37.754Z,32.33
2023-04-09T19:15:04.889Z,29.58
2023-04-09T19:17:32.041Z,28.05
2023-04-09T19:19:58.576Z,19.90
2023-04-09T19:22:25.093Z,16.52
2023-04-09T19:24:51.746Z,15.10
2023-04-09T19:27:19.421Z,14.00
2023-04-09T19:29:46.973Z,14.27
2023-04-09T19:32:13.852Z,15.82
2023-04-09T19:34:40.427Z,16.70
2023-04-09T19:37:07.432Z,16.53
2023-04-09T19:39:33.853Z,17.33
2023-04-09T19:42:00.642Z,16.48
2023-04-09T19:44:27.126Z,14.68
2023-04-09T19:46:53.645Z,16.05
2023-04-09T19:49:20.416Z,15.60
2023-04-09T19:51:46.990Z,15.57
2023-04-09T19:54:15.146Z,14.95
2023-04-09T19:56:42.470Z,15.45
2023-04-09T19:59:08.975Z,14.38
2023-04-09T20:01:36.126Z,15.07
2023-04-09T20:04:02.983Z,15.00
2023-04-09T20:06:30.697Z,14.15
2023-04-09T20:08:57.315Z,12.13
2023-04-09T20:11:23.874Z,13.23
2023-04-09T20:13:50.392Z,45.03
2023-04-09T20:16:17.097Z,39.95
2023-04-09T20:18:43.724Z,16.67
2023-04-09T20:21:14.134Z,13.38
2023-04-09T20:23:40.770Z,13.25
2023-04-09T20:26:11.183Z,12.87
2023-04-09T20:28:37.785Z,13.02
2023-04-09T20:31:04.535Z,13.05
2023-04-09T20:33:32.090Z,12.25
2023-04-09T20:35:59.276Z,13.77
2023-04-09T20:38:26.130Z,13.07
2023-04-09T20:40:53.011Z,13.15
2023-04-09T20:43:20.376Z,13.27
2023-04-09T20:45:47.416Z,15.13
2023-04-09T20:48:14.886Z,17.40
2023-04-09T20:50:42.106Z,14.97
2023-04-09T20:53:08.561Z,16.48
2023-04-09T20:55:35.659Z,22.25
2023-04-09T20:58:02.864Z,18.23
2023-04-09T21:00:29.727Z,17.20
2023-04-09T21:02:56.342Z,14.77
2023-04-09T21:05:24.153Z,15.10
2023-04-09T21:07:52.704Z,15.75
2023-04-09T21:10:19.551Z,16.45
2023-04-09T21:12:46.043Z,16.75
2023-04-09T21:15:12.600Z,15.10
2023-04-09T21:17:39.150Z,15.02
2023-04-09T21:20:06.202Z,15.50
2023-04-09T21:22:34.683Z,15.13
2023-04-09T21:25:03.033Z,12.75
2023-04-09T21:27:29.739Z,13.90
2023-04-09T21:29:56.301Z,20.75
2023-04-09T21:32:22.938Z,17.05
2023-04-09T21:34:49.447Z,18.30
2023-04-09T21:37:16.199Z,15.98
2023-04-09T21:39:42.682Z,15.10
2023-04-09T21:42:09.180Z,15.65
2023-04-09T21:44:35.712Z,13.48
2023-04-09T21:47:07.393Z,15.95
2023-04-09T21:49:38.994Z,14.68
2023-04-09T21:52:07.037Z,15.53
2023-04-09T21:54:33.587Z,16.23
2023-04-09T21:57:01.042Z,17.02
2023-04-09T21:59:28.134Z,14.43
2023-04-09T22:01:54.671Z,16.08
2023-04-09T22:04:21.318Z,15.20
2023-04-09T22:06:48.115Z,15.45
2023-04-09T22:09:14.532Z,16.13
2023-04-09T22:11:41.488Z,14.68
2023-04-09T22:14:07.920Z,17.23
2023-04-09T22:16:35.167Z,18.07
2023-04-09T22:19:02.279Z,16.60
2023-04-09T22:21:28.766Z,19.75
2023-04-09T22:23:55.353Z,17.10
2023-04-09T22:26:22.510Z,17.73
2023-04-09T22:28:48.975Z,15.67
2023-04-09T22:31:15.556Z,14.93
2023-04-09T22:33:42.095Z,16.40
2023-04-09T22:36:08.692Z,15.88
2023-04-09T22:38:35.332Z,16.20
2023-04-09T22:41:01.848Z,18.33
2023-04-09T22:43:28.317Z,15.45
2023-04-09T22:45:55.886Z,15.43
2023-04-09T22:48:23.039Z,16.85
2023-04-09T22:50:50.465Z,16.60
2023-04-09T22:53:20.858Z,15.73
2023-04-09T22:55:50.761Z,16.15
2023-04-09T22:58:17.820Z,17.98
2023-04-09T23:00:44.580Z,17.38
2023-04-09T23:03:11.272Z,18.63
2023-04-09T23:05:38.065Z,15.77
2023-04-09T23:08:05.039Z,20.42
2023-04-09T23:10:32.147Z,16.23
2023-04-09T23:12:58.710Z,16.75
2023-04-09T23:15:25.439Z,17.80
2023-04-09T23:17:52.336Z,16.20
2023-04-09T23:20:18.876Z,17.02
2023-04-09T23:22:49.083Z,18.10
2023-04-09T23:25:16.515Z,18.05
2023-04-09T23:27:43.549Z,16.83
2023-04-09T23:30:10.573Z,17.30
2023-04-09T23:32:37.277Z,19.60
2023-04-09T23:35:04.160Z,19.40
2023-04-09T23:37:30.697Z,17.13
2023-04-09T23:39:57.181Z,16.38
2023-04-09T23:42:23.888Z,17.13
2023-04-09T23:44:50.483Z,15.63
2023-04-09T23:47:17.438Z,20.98
2023-04-09T23:49:44.866Z,16.75
2023-04-09T23:52:11.517Z,18.35
2023-04-09T23:54:38.029Z,16.13
2023-04-09T23:57:04.531Z,18.33
2023-04-09T23:59:33.910Z,15.50
